sensor_id;sensor_type;location;lat;lon;timestamp;P1;durP1;ratioP1;P2;durP2;ratioP2
43682;SDS011;29285;52.128;21.060;2024-02-21T00:04:44;10.40;;;4.00;;
43682;SDS011;29285;52.128;21.060;2024-02-21T00:09:45;7.80;;;3.90;;
43682;SDS011;29285;52.128;21.060;2024-02-21T00:14:46;15.10;;;3.70;;
43682;SDS011;29285;52.128;21.060;2024-02-21T00:19:47;8.40;;;3.40;;
43682;SDS011;29285;52.128;21.060;2024-02-21T00:24:48;12.80;;;3.70;;
43682;SDS011;29285;52.128;21.060;2024-02-21T00:29:49;11.50;;;3.30;;
43682;SDS011;29285;52.128;21.060;2024-02-21T00:34:50;9.60;;;3.60;;
43682;SDS011;29285;52.128;21.060;2024-02-21T00:39:51;9.80;;;3.80;;
43682;SDS011;29285;52.128;21.060;2024-02-21T00:44:52;8.30;;;2.80;;
43682;SDS011;29285;52.128;21.060;2024-02-21T00:49:53;5.00;;;2.50;;
43682;SDS011;29285;52.128;21.060;2024-02-21T00:54:54;8.60;;;3.20;;
43682;SDS011;29285;52.128;21.060;2024-02-21T00:59:55;7.90;;;3.20;;
43682;SDS011;29285;52.128;21.060;2024-02-21T01:04:56;7.10;;;2.60;;
43682;SDS011;29285;52.128;21.060;2024-02-21T01:09:57;9.90;;;2.70;;
43682;SDS011;29285;52.128;21.060;2024-02-21T01:14:59;8.70;;;3.40;;
43682;SDS011;29285;52.128;21.060;2024-02-21T01:19:59;7.00;;;3.30;;
43682;SDS011;29285;52.128;21.060;2024-02-21T01:25:00;9.70;;;3.80;;
43682;SDS011;29285;52.128;21.060;2024-02-21T01:30:01;9.80;;;3.90;;
43682;SDS011;29285;52.128;21.060;2024-02-21T01:35:02;8.90;;;3.70;;
43682;SDS011;29285;52.128;21.060;2024-02-21T01:40:04;11.20;;;3.10;;
43682;SDS011;29285;52.128;21.060;2024-02-21T01:45:05;10.20;;;3.50;;
43682;SDS011;29285;52.128;21.060;2024-02-21T01:50:06;15.40;;;3.60;;
43682;SDS011;29285;52.128;21.060;2024-02-21T01:55:08;11.60;;;3.20;;
43682;SDS011;29285;52.128;21.060;2024-02-21T02:00:11;7.90;;;3.50;;
43682;SDS011;29285;52.128;21.060;2024-02-21T02:05:14;12.90;;;3.60;;
43682;SDS011;29285;52.128;21.060;2024-02-21T02:10:17;7.10;;;3.00;;
43682;SDS011;29285;52.128;21.060;2024-02-21T02:15:18;7.60;;;3.90;;
43682;SDS011;29285;52.128;21.060;2024-02-21T02:20:19;9.00;;;3.30;;
43682;SDS011;29285;52.128;21.060;2024-02-21T02:25:20;9.40;;;3.70;;
43682;SDS011;29285;52.128;21.060;2024-02-21T02:30:22;12.30;;;3.60;;
43682;SDS011;29285;52.128;21.060;2024-02-21T02:35:23;13.50;;;3.80;;
43682;SDS011;29285;52.128;21.060;2024-02-21T02:40:24;11.40;;;4.20;;
43682;SDS011;29285;52.128;21.060;2024-02-21T02:45:25;8.80;;;4.20;;
43682;SDS011;29285;52.128;21.060;2024-02-21T02:50:27;8.80;;;3.80;;
43682;SDS011;29285;52.128;21.060;2024-02-21T02:55:28;7.80;;;3.90;;
43682;SDS011;29285;52.128;21.060;2024-02-21T03:00:29;8.50;;;4.10;;
43682;SDS011;29285;52.128;21.060;2024-02-21T03:05:30;10.90;;;4.50;;
43682;SDS011;29285;52.128;21.060;2024-02-21T03:10:31;7.50;;;4.80;;
43682;SDS011;29285;52.128;21.060;2024-02-21T03:15:32;8.70;;;4.30;;
43682;SDS011;29285;52.128;21.060;2024-02-21T03:20:33;8.50;;;4.80;;
43682;SDS011;29285;52.128;21.060;2024-02-21T03:25:34;10.90;;;4.10;;
43682;SDS011;29285;52.128;21.060;2024-02-21T03:30:34;9.40;;;5.20;;
43682;SDS011;29285;52.128;21.060;2024-02-21T03:35:36;8.60;;;4.40;;
43682;SDS011;29285;52.128;21.060;2024-02-21T03:40:37;8.10;;;4.20;;
43682;SDS011;29285;52.128;21.060;2024-02-21T03:45:38;12.10;;;6.00;;
43682;SDS011;29285;52.128;21.060;2024-02-21T03:50:39;9.00;;;4.70;;
43682;SDS011;29285;52.128;21.060;2024-02-21T03:55:39;7.40;;;4.30;;
43682;SDS011;29285;52.128;21.060;2024-02-21T04:00:40;10.00;;;5.30;;
43682;SDS011;29285;52.128;21.060;2024-02-21T04:05:42;12.60;;;4.60;;
43682;SDS011;29285;52.128;21.060;2024-02-21T04:10:43;13.30;;;6.10;;
43682;SDS011;29285;52.128;21.060;2024-02-21T04:15:44;11.50;;;4.00;;
43682;SDS011;29285;52.128;21.060;2024-02-21T04:20:45;11.50;;;4.50;;
43682;SDS011;29285;52.128;21.060;2024-02-21T04:25:46;12.70;;;4.80;;
43682;SDS011;29285;52.128;21.060;2024-02-21T04:30:46;11.50;;;4.70;;
43682;SDS011;29285;52.128;21.060;2024-02-21T04:35:48;14.10;;;6.00;;
43682;SDS011;29285;52.128;21.060;2024-02-21T04:40:48;7.20;;;4.40;;
43682;SDS011;29285;52.128;21.060;2024-02-21T04:45:49;13.40;;;5.60;;
43682;SDS011;29285;52.128;21.060;2024-02-21T04:50:51;9.90;;;4.50;;
43682;SDS011;29285;52.128;21.060;2024-02-21T04:55:52;12.90;;;5.30;;
43682;SDS011;29285;52.128;21.060;2024-02-21T05:00:53;11.10;;;5.20;;
43682;SDS011;29285;52.128;21.060;2024-02-21T05:05:55;8.30;;;4.00;;
43682;SDS011;29285;52.128;21.060;2024-02-21T05:10:56;8.10;;;4.30;;
43682;SDS011;29285;52.128;21.060;2024-02-21T05:15:57;13.10;;;5.00;;
43682;SDS011;29285;52.128;21.060;2024-02-21T05:21:01;11.20;;;5.70;;
43682;SDS011;29285;52.128;21.060;2024-02-21T05:26:02;7.40;;;4.50;;
43682;SDS011;29285;52.128;21.060;2024-02-21T05:31:03;14.10;;;5.30;;
43682;SDS011;29285;52.128;21.060;2024-02-21T05:36:05;8.40;;;5.00;;
43682;SDS011;29285;52.128;21.060;2024-02-21T05:41:06;9.70;;;4.90;;
43682;SDS011;29285;52.128;21.060;2024-02-21T05:46:07;10.40;;;5.70;;
43682;SDS011;29285;52.128;21.060;2024-02-21T05:51:08;11.90;;;5.10;;
43682;SDS011;29285;52.128;21.060;2024-02-21T05:56:12;10.30;;;5.90;;
43682;SDS011;29285;52.128;21.060;2024-02-21T06:01:14;20.80;;;8.10;;
43682;SDS011;29285;52.128;21.060;2024-02-21T06:06:15;11.50;;;6.90;;
43682;SDS011;29285;52.128;21.060;2024-02-21T06:11:16;9.80;;;6.80;;
43682;SDS011;29285;52.128;21.060;2024-02-21T06:16:17;15.50;;;7.30;;
43682;SDS011;29285;52.128;21.060;2024-02-21T06:21:18;14.10;;;6.50;;
43682;SDS011;29285;52.128;21.060;2024-02-21T06:26:18;13.50;;;7.30;;
43682;SDS011;29285;52.128;21.060;2024-02-21T06:31:19;12.10;;;6.30;;
43682;SDS011;29285;52.128;21.060;2024-02-21T06:36:20;12.50;;;8.30;;
43682;SDS011;29285;52.128;21.060;2024-02-21T06:41:21;10.90;;;7.00;;
43682;SDS011;29285;52.128;21.060;2024-02-21T06:46:26;13.90;;;7.90;;
43682;SDS011;29285;52.128;21.060;2024-02-21T06:51:29;13.80;;;7.70;;
43682;SDS011;29285;52.128;21.060;2024-02-21T06:56:30;15.00;;;8.90;;
43682;SDS011;29285;52.128;21.060;2024-02-21T07:01:31;15.60;;;8.60;;
43682;SDS011;29285;52.128;21.060;2024-02-21T07:06:32;15.90;;;8.30;;
43682;SDS011;29285;52.128;21.060;2024-02-21T07:11:35;17.70;;;9.30;;
43682;SDS011;29285;52.128;21.060;2024-02-21T07:16:35;16.50;;;8.70;;
43682;SDS011;29285;52.128;21.060;2024-02-21T07:21:36;16.70;;;9.60;;
43682;SDS011;29285;52.128;21.060;2024-02-21T07:26:42;17.30;;;9.80;;
43682;SDS011;29285;52.128;21.060;2024-02-21T07:31:44;17.60;;;9.50;;
43682;SDS011;29285;52.128;21.060;2024-02-21T07:36:45;20.80;;;10.10;;
43682;SDS011;29285;52.128;21.060;2024-02-21T07:41:46;19.70;;;11.90;;
43682;SDS011;29285;52.128;21.060;2024-02-21T07:46:48;24.40;;;11.30;;
43682;SDS011;29285;52.128;21.060;2024-02-21T07:51:49;22.30;;;10.70;;
43682;SDS011;29285;52.128;21.060;2024-02-21T07:56:50;24.20;;;11.60;;
43682;SDS011;29285;52.128;21.060;2024-02-21T08:01:51;23.30;;;11.00;;
43682;SDS011;29285;52.128;21.060;2024-02-21T08:06:56;31.60;;;12.70;;
43682;SDS011;29285;52.128;21.060;2024-02-21T08:11:59;33.60;;;12.40;;
43682;SDS011;29285;52.128;21.060;2024-02-21T08:17:00;21.60;;;11.10;;
43682;SDS011;29285;52.128;21.060;2024-02-21T08:22:01;28.00;;;13.80;;
43682;SDS011;29285;52.128;21.060;2024-02-21T08:27:03;23.00;;;10.90;;
43682;SDS011;29285;52.128;21.060;2024-02-21T08:32:05;24.30;;;10.70;;
43682;SDS011;29285;52.128;21.060;2024-02-21T08:37:06;24.50;;;11.40;;
43682;SDS011;29285;52.128;21.060;2024-02-21T08:42:07;19.70;;;9.30;;
43682;SDS011;29285;52.128;21.060;2024-02-21T08:47:08;19.10;;;10.70;;
43682;SDS011;29285;52.128;21.060;2024-02-21T08:52:10;24.40;;;10.20;;
43682;SDS011;29285;52.128;21.060;2024-02-21T08:57:11;19.80;;;10.30;;
43682;SDS011;29285;52.128;21.060;2024-02-21T09:02:14;21.20;;;10.50;;
43682;SDS011;29285;52.128;21.060;2024-02-21T09:07:18;26.80;;;10.10;;
43682;SDS011;29285;52.128;21.060;2024-02-21T09:12:19;18.00;;;8.90;;
43682;SDS011;29285;52.128;21.060;2024-02-21T09:17:20;25.60;;;10.40;;
43682;SDS011;29285;52.128;21.060;2024-02-21T09:22:21;18.20;;;9.00;;
43682;SDS011;29285;52.128;21.060;2024-02-21T09:27:22;19.50;;;8.30;;
43682;SDS011;29285;52.128;21.060;2024-02-21T09:32:23;21.10;;;8.40;;
43682;SDS011;29285;52.128;21.060;2024-02-21T09:37:24;19.00;;;7.60;;
43682;SDS011;29285;52.128;21.060;2024-02-21T09:42:29;17.90;;;6.90;;
43682;SDS011;29285;52.128;21.060;2024-02-21T09:47:40;17.80;;;6.30;;
43682;SDS011;29285;52.128;21.060;2024-02-21T09:52:51;14.50;;;5.80;;
43682;SDS011;29285;52.128;21.060;2024-02-21T09:57:54;20.60;;;6.80;;
43682;SDS011;29285;52.128;21.060;2024-02-21T10:02:58;14.40;;;7.10;;
43682;SDS011;29285;52.128;21.060;2024-02-21T10:07:59;16.50;;;6.80;;
43682;SDS011;29285;52.128;21.060;2024-02-21T10:13:00;19.60;;;7.60;;
43682;SDS011;29285;52.128;21.060;2024-02-21T10:18:02;21.10;;;7.70;;
43682;SDS011;29285;52.128;21.060;2024-02-21T10:23:07;13.80;;;6.10;;
43682;SDS011;29285;52.128;21.060;2024-02-21T10:28:11;12.10;;;6.40;;
43682;SDS011;29285;52.128;21.060;2024-02-21T10:33:15;20.60;;;7.70;;
43682;SDS011;29285;52.128;21.060;2024-02-21T10:38:16;14.40;;;7.80;;
43682;SDS011;29285;52.128;21.060;2024-02-21T10:43:17;16.10;;;8.20;;
43682;SDS011;29285;52.128;21.060;2024-02-21T10:48:21;16.80;;;7.30;;
43682;SDS011;29285;52.128;21.060;2024-02-21T10:58:54;16.50;;;7.90;;
43682;SDS011;29285;52.128;21.060;2024-02-21T11:03:59;20.40;;;8.80;;
43682;SDS011;29285;52.128;21.060;2024-02-21T11:09:09;20.50;;;10.00;;
43682;SDS011;29285;52.128;21.060;2024-02-21T11:14:17;18.30;;;9.00;;
43682;SDS011;29285;52.128;21.060;2024-02-21T11:24:31;20.70;;;9.90;;
43682;SDS011;29285;52.128;21.060;2024-02-21T11:29:33;21.90;;;9.80;;
43682;SDS011;29285;52.128;21.060;2024-02-21T11:34:41;17.80;;;8.70;;
43682;SDS011;29285;52.128;21.060;2024-02-21T11:40:06;14.90;;;9.50;;
43682;SDS011;29285;52.128;21.060;2024-02-21T11:45:10;20.10;;;9.90;;
43682;SDS011;29285;52.128;21.060;2024-02-21T11:50:11;18.70;;;9.00;;
43682;SDS011;29285;52.128;21.060;2024-02-21T11:55:12;23.20;;;9.00;;
43682;SDS011;29285;52.128;21.060;2024-02-21T12:00:16;20.70;;;10.20;;
43682;SDS011;29285;52.128;21.060;2024-02-21T12:05:20;14.30;;;8.60;;
43682;SDS011;29285;52.128;21.060;2024-02-21T12:10:22;21.30;;;10.00;;
43682;SDS011;29285;52.128;21.060;2024-02-21T12:15:23;17.50;;;11.00;;
43682;SDS011;29285;52.128;21.060;2024-02-21T12:20:24;26.00;;;11.60;;
43682;SDS011;29285;52.128;21.060;2024-02-21T12:25:26;23.50;;;11.20;;
43682;SDS011;29285;52.128;21.060;2024-02-21T12:30:28;23.10;;;12.60;;
43682;SDS011;29285;52.128;21.060;2024-02-21T12:35:30;21.70;;;11.30;;
43682;SDS011;29285;52.128;21.060;2024-02-21T12:40:33;20.40;;;10.80;;
43682;SDS011;29285;52.128;21.060;2024-02-21T12:45:34;18.30;;;11.60;;
43682;SDS011;29285;52.128;21.060;2024-02-21T12:50:35;17.60;;;10.00;;
43682;SDS011;29285;52.128;21.060;2024-02-21T12:55:36;22.20;;;10.90;;
43682;SDS011;29285;52.128;21.060;2024-02-21T13:00:38;18.20;;;11.50;;
43682;SDS011;29285;52.128;21.060;2024-02-21T13:05:39;19.90;;;11.50;;
43682;SDS011;29285;52.128;21.060;2024-02-21T13:10:40;25.10;;;11.70;;
43682;SDS011;29285;52.128;21.060;2024-02-21T13:15:41;14.60;;;9.70;;
43682;SDS011;29285;52.128;21.060;2024-02-21T13:20:44;20.10;;;11.40;;
43682;SDS011;29285;52.128;21.060;2024-02-21T13:25:44;15.40;;;9.40;;
43682;SDS011;29285;52.128;21.060;2024-02-21T13:30:46;20.30;;;9.60;;
43682;SDS011;29285;52.128;21.060;2024-02-21T13:35:47;23.40;;;10.70;;
43682;SDS011;29285;52.128;21.060;2024-02-21T13:40:48;16.30;;;9.50;;
43682;SDS011;29285;52.128;21.060;2024-02-21T13:45:59;22.00;;;10.60;;
43682;SDS011;29285;52.128;21.060;2024-02-21T13:51:01;16.90;;;10.00;;
43682;SDS011;29285;52.128;21.060;2024-02-21T13:56:03;24.20;;;9.80;;
43682;SDS011;29285;52.128;21.060;2024-02-21T14:01:04;19.20;;;11.00;;
43682;SDS011;29285;52.128;21.060;2024-02-21T14:06:05;24.60;;;9.70;;
43682;SDS011;29285;52.128;21.060;2024-02-21T14:11:06;16.80;;;10.10;;
43682;SDS011;29285;52.128;21.060;2024-02-21T14:16:10;22.80;;;9.90;;
43682;SDS011;29285;52.128;21.060;2024-02-21T14:21:14;17.30;;;9.30;;
43682;SDS011;29285;52.128;21.060;2024-02-21T14:26:15;20.80;;;10.50;;
43682;SDS011;29285;52.128;21.060;2024-02-21T14:31:16;14.60;;;9.20;;
43682;SDS011;29285;52.128;21.060;2024-02-21T14:36:17;17.90;;;8.60;;
43682;SDS011;29285;52.128;21.060;2024-02-21T14:41:18;14.50;;;8.30;;
43682;SDS011;29285;52.128;21.060;2024-02-21T14:46:20;14.60;;;8.10;;
43682;SDS011;29285;52.128;21.060;2024-02-21T14:51:21;16.40;;;8.90;;
43682;SDS011;29285;52.128;21.060;2024-02-21T14:56:22;15.60;;;8.00;;
43682;SDS011;29285;52.128;21.060;2024-02-21T15:01:24;14.60;;;8.10;;
43682;SDS011;29285;52.128;21.060;2024-02-21T15:06:25;14.00;;;7.10;;
43682;SDS011;29285;52.128;21.060;2024-02-21T15:11:26;23.00;;;8.80;;
43682;SDS011;29285;52.128;21.060;2024-02-21T15:16:27;14.80;;;8.00;;
43682;SDS011;29285;52.128;21.060;2024-02-21T15:21:28;18.80;;;8.30;;
43682;SDS011;29285;52.128;21.060;2024-02-21T15:26:29;23.30;;;10.10;;
43682;SDS011;29285;52.128;21.060;2024-02-21T15:31:30;18.10;;;8.90;;
43682;SDS011;29285;52.128;21.060;2024-02-21T15:36:31;13.40;;;7.80;;
43682;SDS011;29285;52.128;21.060;2024-02-21T15:41:32;17.70;;;7.60;;
43682;SDS011;29285;52.128;21.060;2024-02-21T15:46:34;17.90;;;7.70;;
43682;SDS011;29285;52.128;21.060;2024-02-21T15:51:37;13.10;;;7.10;;
43682;SDS011;29285;52.128;21.060;2024-02-21T15:56:40;15.50;;;8.30;;
43682;SDS011;29285;52.128;21.060;2024-02-21T16:01:41;18.50;;;8.20;;
43682;SDS011;29285;52.128;21.060;2024-02-21T16:06:43;17.70;;;7.80;;
43682;SDS011;29285;52.128;21.060;2024-02-21T16:11:46;13.70;;;6.50;;
43682;SDS011;29285;52.128;21.060;2024-02-21T16:16:48;18.00;;;7.60;;
43682;SDS011;29285;52.128;21.060;2024-02-21T16:21:49;16.70;;;9.30;;
43682;SDS011;29285;52.128;21.060;2024-02-21T16:26:50;15.20;;;7.00;;
43682;SDS011;29285;52.128;21.060;2024-02-21T16:31:51;11.20;;;8.10;;
43682;SDS011;29285;52.128;21.060;2024-02-21T16:36:54;19.50;;;8.80;;
43682;SDS011;29285;52.128;21.060;2024-02-21T16:41:58;17.60;;;7.80;;
43682;SDS011;29285;52.128;21.060;2024-02-21T16:47:06;15.90;;;7.60;;
43682;SDS011;29285;52.128;21.060;2024-02-21T16:57:09;12.20;;;6.90;;
43682;SDS011;29285;52.128;21.060;2024-02-21T17:02:10;15.70;;;7.60;;
43682;SDS011;29285;52.128;21.060;2024-02-21T17:07:11;12.20;;;6.40;;
43682;SDS011;29285;52.128;21.060;2024-02-21T17:12:12;18.60;;;8.80;;
43682;SDS011;29285;52.128;21.060;2024-02-21T17:17:13;16.40;;;7.40;;
43682;SDS011;29285;52.128;21.060;2024-02-21T17:22:14;12.00;;;6.90;;
43682;SDS011;29285;52.128;21.060;2024-02-21T17:27:15;15.30;;;7.40;;
43682;SDS011;29285;52.128;21.060;2024-02-21T17:32:16;13.70;;;7.30;;
43682;SDS011;29285;52.128;21.060;2024-02-21T17:37:16;11.80;;;6.40;;
43682;SDS011;29285;52.128;21.060;2024-02-21T17:42:18;11.90;;;6.40;;
43682;SDS011;29285;52.128;21.060;2024-02-21T17:47:18;13.20;;;6.70;;
43682;SDS011;29285;52.128;21.060;2024-02-21T17:52:19;11.60;;;5.40;;
43682;SDS011;29285;52.128;21.060;2024-02-21T17:57:21;10.90;;;6.70;;
43682;SDS011;29285;52.128;21.060;2024-02-21T18:02:22;12.30;;;6.20;;
43682;SDS011;29285;52.128;21.060;2024-02-21T18:07:24;11.50;;;7.20;;
43682;SDS011;29285;52.128;21.060;2024-02-21T18:12:25;14.00;;;6.20;;
43682;SDS011;29285;52.128;21.060;2024-02-21T18:17:26;16.40;;;7.70;;
43682;SDS011;29285;52.128;21.060;2024-02-21T18:22:27;12.30;;;6.80;;
43682;SDS011;29285;52.128;21.060;2024-02-21T18:27:28;13.30;;;7.80;;
43682;SDS011;29285;52.128;21.060;2024-02-21T18:32:30;12.40;;;8.00;;
43682;SDS011;29285;52.128;21.060;2024-02-21T18:37:31;13.60;;;7.90;;
43682;SDS011;29285;52.128;21.060;2024-02-21T18:42:32;18.60;;;8.90;;
43682;SDS011;29285;52.128;21.060;2024-02-21T18:47:34;22.40;;;9.50;;
43682;SDS011;29285;52.128;21.060;2024-02-21T18:52:35;11.80;;;7.90;;
43682;SDS011;29285;52.128;21.060;2024-02-21T18:57:36;14.20;;;9.40;;
43682;SDS011;29285;52.128;21.060;2024-02-21T19:02:37;15.30;;;9.50;;
43682;SDS011;29285;52.128;21.060;2024-02-21T19:07:38;16.00;;;9.50;;
43682;SDS011;29285;52.128;21.060;2024-02-21T19:12:39;14.00;;;9.40;;
43682;SDS011;29285;52.128;21.060;2024-02-21T19:17:41;15.50;;;10.10;;
43682;SDS011;29285;52.128;21.060;2024-02-21T19:22:42;14.40;;;9.50;;
43682;SDS011;29285;52.128;21.060;2024-02-21T19:27:47;15.60;;;9.70;;
43682;SDS011;29285;52.128;21.060;2024-02-21T19:32:48;14.20;;;8.70;;
43682;SDS011;29285;52.128;21.060;2024-02-21T19:37:50;17.40;;;10.70;;
43682;SDS011;29285;52.128;21.060;2024-02-21T19:42:51;20.10;;;11.50;;
43682;SDS011;29285;52.128;21.060;2024-02-21T19:47:54;15.80;;;10.80;;
43682;SDS011;29285;52.128;21.060;2024-02-21T19:52:55;21.80;;;11.90;;
43682;SDS011;29285;52.128;21.060;2024-02-21T19:57:56;16.10;;;10.80;;
43682;SDS011;29285;52.128;21.060;2024-02-21T20:02:58;20.50;;;12.00;;
43682;SDS011;29285;52.128;21.060;2024-02-21T20:07:59;18.40;;;10.30;;
43682;SDS011;29285;52.128;21.060;2024-02-21T20:13:00;17.00;;;11.60;;
43682;SDS011;29285;52.128;21.060;2024-02-21T20:18:01;14.90;;;10.50;;
43682;SDS011;29285;52.128;21.060;2024-02-21T20:23:04;17.20;;;10.50;;
43682;SDS011;29285;52.128;21.060;2024-02-21T20:28:05;17.80;;;10.80;;
43682;SDS011;29285;52.128;21.060;2024-02-21T20:33:06;16.50;;;10.90;;
43682;SDS011;29285;52.128;21.060;2024-02-21T20:38:07;21.10;;;11.00;;
43682;SDS011;29285;52.128;21.060;2024-02-21T20:43:08;18.00;;;10.80;;
43682;SDS011;29285;52.128;21.060;2024-02-21T20:48:09;19.10;;;11.90;;
43682;SDS011;29285;52.128;21.060;2024-02-21T20:53:10;21.90;;;11.90;;
43682;SDS011;29285;52.128;21.060;2024-02-21T20:58:10;22.10;;;10.90;;
43682;SDS011;29285;52.128;21.060;2024-02-21T21:03:11;18.60;;;12.00;;
43682;SDS011;29285;52.128;21.060;2024-02-21T21:08:13;16.90;;;9.80;;
43682;SDS011;29285;52.128;21.060;2024-02-21T21:13:14;15.70;;;10.70;;
43682;SDS011;29285;52.128;21.060;2024-02-21T21:18:16;17.50;;;10.90;;
43682;SDS011;29285;52.128;21.060;2024-02-21T21:23:17;17.50;;;10.10;;
43682;SDS011;29285;52.128;21.060;2024-02-21T21:28:18;20.90;;;11.20;;
43682;SDS011;29285;52.128;21.060;2024-02-21T21:33:19;17.30;;;11.10;;
43682;SDS011;29285;52.128;21.060;2024-02-21T21:38:21;20.90;;;11.90;;
43682;SDS011;29285;52.128;21.060;2024-02-21T21:43:22;15.70;;;10.70;;
43682;SDS011;29285;52.128;21.060;2024-02-21T21:48:24;19.00;;;10.10;;
43682;SDS011;29285;52.128;21.060;2024-02-21T21:53:25;20.70;;;11.30;;
43682;SDS011;29285;52.128;21.060;2024-02-21T21:58:26;21.40;;;11.90;;
43682;SDS011;29285;52.128;21.060;2024-02-21T22:03:27;19.70;;;10.90;;
43682;SDS011;29285;52.128;21.060;2024-02-21T22:08:28;20.80;;;10.40;;
43682;SDS011;29285;52.128;21.060;2024-02-21T22:13:29;17.60;;;10.60;;
43682;SDS011;29285;52.128;21.060;2024-02-21T22:18:30;19.10;;;11.00;;
43682;SDS011;29285;52.128;21.060;2024-02-21T22:23:33;21.40;;;11.60;;
43682;SDS011;29285;52.128;21.060;2024-02-21T22:28:34;17.70;;;11.70;;
43682;SDS011;29285;52.128;21.060;2024-02-21T22:33:35;28.80;;;13.50;;
43682;SDS011;29285;52.128;21.060;2024-02-21T22:38:36;14.50;;;10.20;;
43682;SDS011;29285;52.128;21.060;2024-02-21T22:43:38;17.00;;;10.90;;
43682;SDS011;29285;52.128;21.060;2024-02-21T22:48:38;17.80;;;10.50;;
43682;SDS011;29285;52.128;21.060;2024-02-21T22:53:40;18.00;;;11.70;;
43682;SDS011;29285;52.128;21.060;2024-02-21T22:58:41;18.70;;;11.00;;
43682;SDS011;29285;52.128;21.060;2024-02-21T23:03:42;17.20;;;11.20;;
43682;SDS011;29285;52.128;21.060;2024-02-21T23:08:43;20.40;;;10.70;;
43682;SDS011;29285;52.128;21.060;2024-02-21T23:13:46;19.70;;;10.30;;
43682;SDS011;29285;52.128;21.060;2024-02-21T23:18:47;20.90;;;10.40;;
43682;SDS011;29285;52.128;21.060;2024-02-21T23:23:48;20.40;;;11.10;;
43682;SDS011;29285;52.128;21.060;2024-02-21T23:28:49;19.80;;;10.20;;
43682;SDS011;29285;52.128;21.060;2024-02-21T23:33:50;16.60;;;9.50;;
43682;SDS011;29285;52.128;21.060;2024-02-21T23:38:51;19.10;;;10.00;;
43682;SDS011;29285;52.128;21.060;2024-02-21T23:43:52;16.40;;;9.70;;
43682;SDS011;29285;52.128;21.060;2024-02-21T23:48:57;20.40;;;11.20;;
43682;SDS011;29285;52.128;21.060;2024-02-21T23:53:59;15.70;;;9.10;;
43682;SDS011;29285;52.128;21.060;2024-02-21T23:59:00;16.20;;;9.50;;
